PWSweather.com
Personal Weather Stations
Station Observations
KGRPEEBLES
PeeblesGB EH45 9LX

PeeblesGB EH45 9LX

Lat: 55.64096, Lon: -3.170893

Elevation: 517

Station Type: Watson W-8681

Latest ConditionsUpdated 4:00:02 PM GMT Thursday, Mar 23, 2017
Currently Today's Max Today's Min Today's Average
Temperature 44.4°F6.9°C 45.0°F7.2°C 37.4°F3.0°C 40.2°F4.6°C
Dew Point 35.3°F1.8°C 80.4°F26.9°C 2.2°F-16.6°C 19.6°F-6.9°C
Winds 3.7 mph NE6.0 kmh NE 11.9 mph N19.2 kmh N - 6.0 mph 9.7 kmh
Wind Gusts 6.0 mph9.7 kmh 16.8 mph27.0 kmh - -
Humidity 70% 70% 5% 44%
Pressure 30.27 in1025.1 mb 30.27 in1025.1 mb 29.51 in999.3 mb -
Precipitation - 0.34 in8.6 mm - -
Hour Temp Dew Point Humidity Winds Wind Gusts Pressure Precip Precip Rate Daily Precip Total
04:00 PM 44.4°F6.9°C 35.3°F1.8°C 70% 3.7 mph NE6.0 kmh NE 6.0 mph9.7 kmh 30.27 in1025.1 mb 0.00 in0.0 mm 0.00 in0.0 mm 0.34 in8.6 mm
03:45 PM 44.6°F7.0°C 34.7°F1.5°C 68% 5.2 mph N8.4 kmh N 7.6 mph12.2 kmh 30.26 in1024.7 mb 0.00 in0.0 mm 0.00 in0.0 mm 0.34 in8.6 mm
03:30 PM 44.4°F6.9°C 34.9°F1.6°C 69% 6.6 mph NNE10.6 kmh NNE 8.3 mph13.4 kmh 30.26 in1024.7 mb 0.00 in0.0 mm 0.00 in0.0 mm 0.34 in8.6 mm
03:15 PM 44.6°F7.0°C 34.7°F1.5°C 68% 4.3 mph NNE6.9 kmh NNE 6.0 mph9.7 kmh 30.27 in1025.1 mb 0.00 in0.0 mm 0.00 in0.0 mm 0.34 in8.6 mm
03:00 PM 44.4°F6.9°C 33.8°F1.0°C 66% 5.3 mph N8.5 kmh N 7.6 mph12.2 kmh 30.26 in1024.7 mb 0.00 in0.0 mm 0.00 in0.0 mm 0.34 in8.6 mm
02:45 PM 44.4°F6.9°C 34.5°F1.4°C 68% 4.2 mph N6.8 kmh N 6.0 mph9.7 kmh 30.25 in1024.4 mb 0.00 in0.0 mm 0.00 in0.0 mm 0.34 in8.6 mm
02:30 PM 44.4°F6.9°C 34.5°F1.4°C 68% 4.3 mph NNE6.9 kmh NNE 7.6 mph12.2 kmh 30.25 in1024.4 mb 0.00 in0.0 mm 0.00 in0.0 mm 0.34 in8.6 mm
02:15 PM 44.6°F7.0°C 34.0°F1.1°C 66% 5.5 mph NNE8.9 kmh NNE 8.3 mph13.4 kmh 30.25 in1024.4 mb 0.00 in0.0 mm 0.00 in0.0 mm 0.34 in8.6 mm
02:00 PM 45.0°F7.2°C 34.3°F1.3°C 66% 4.4 mph N7.1 kmh N 6.9 mph11.1 kmh 30.24 in1024.0 mb 0.00 in0.0 mm 0.00 in0.0 mm 0.34 in8.6 mm
01:45 PM 44.8°F7.1°C 34.1°F1.2°C 66% 5.5 mph NNW8.9 kmh NNW 10.7 mph17.2 kmh 30.24 in1024.0 mb 0.00 in0.0 mm 0.00 in0.0 mm 0.34 in8.6 mm
01:30 PM 44.8°F7.1°C 34.5°F1.4°C 67% 6.2 mph N10.0 kmh N 9.2 mph14.8 kmh 30.24 in1024.0 mb 0.00 in0.0 mm 0.00 in0.0 mm 0.34 in8.6 mm
01:15 PM 44.8°F7.1°C 34.5°F1.4°C 67% 5.6 mph NNE9.0 kmh NNE 9.2 mph14.8 kmh 30.24 in1024.0 mb 0.00 in0.0 mm 0.00 in0.0 mm 0.34 in8.6 mm
01:00 PM 44.8°F7.1°C 34.9°F1.6°C 68% 5.0 mph N8.0 kmh N 7.6 mph12.2 kmh 30.23 in1023.7 mb 0.00 in0.0 mm 0.00 in0.0 mm 0.34 in8.6 mm
12:45 PM 44.4°F6.9°C 34.5°F1.4°C 68% 4.9 mph NNW7.9 kmh NNW 6.9 mph11.1 kmh 30.24 in1024.0 mb 0.00 in0.0 mm 0.00 in0.0 mm 0.34 in8.6 mm
12:30 PM 44.8°F7.1°C 34.1°F1.2°C 66% 3.7 mph NNW6.0 kmh NNW 6.0 mph9.7 kmh 30.24 in1024.0 mb 0.00 in0.0 mm 0.00 in0.0 mm 0.34 in8.6 mm
12:15 PM 44.4°F6.9°C 33.8°F1.0°C 66% 5.1 mph NE8.2 kmh NE 9.8 mph15.8 kmh 30.23 in1023.7 mb 0.00 in0.0 mm 0.00 in0.0 mm 0.34 in8.6 mm
12:00 PM 44.4°F6.9°C 33.8°F1.0°C 66% 4.5 mph WNW7.2 kmh WNW 6.9 mph11.1 kmh 30.23 in1023.7 mb 0.00 in0.0 mm 0.00 in0.0 mm 0.34 in8.6 mm
11:45 AM 44.4°F6.9°C 33.8°F1.0°C 66% 5.6 mph NNW9.0 kmh NNW 8.3 mph13.4 kmh 30.23 in1023.7 mb 0.00 in0.0 mm 0.00 in0.0 mm 0.34 in8.6 mm
11:30 AM 44.6°F7.0°C 32.8°F0.4°C 63% 5.0 mph N8.0 kmh N 9.2 mph14.8 kmh 30.22 in1023.4 mb 0.00 in0.0 mm 0.00 in0.0 mm 0.34 in8.6 mm
11:15 AM 44.2°F6.8°C 32.5°F0.3°C 63% 6.5 mph NNW10.5 kmh NNW 11.4 mph18.3 kmh 30.22 in1023.4 mb 0.00 in0.0 mm 0.00 in0.0 mm 0.34 in8.6 mm
11:00 AM 44.6°F7.0°C 32.4°F0.2°C 62% 5.2 mph W8.4 kmh W 8.3 mph13.4 kmh 30.21 in1023.0 mb 0.00 in0.0 mm 0.00 in0.0 mm 0.34 in8.6 mm
10:45 AM 43.5°F6.4°C 32.2°F0.1°C 64% 6.3 mph NNW10.1 kmh NNW 10.7 mph17.2 kmh 30.21 in1023.0 mb 0.00 in0.0 mm 0.00 in0.0 mm 0.34 in8.6 mm
10:30 AM 43.2°F6.2°C 32.2°F0.1°C 65% 4.2 mph NW6.8 kmh NW 8.3 mph13.4 kmh 30.21 in1023.0 mb 0.00 in0.0 mm 0.00 in0.0 mm 0.34 in8.6 mm
10:18 AM 37.4°F3.0°C 9.5°F-12.5°C 31% 4.3 mph NNW6.9 kmh NNW 6.0 mph9.7 kmh 30.11 in1019.6 mb 0.04 in1.0 mm 1.20 in30.5 mm 0.31 in7.9 mm
10:17 AM 39.9°F4.4°C 23.7°F-4.6°C 52% 9.6 mph E15.4 kmh E 12.1 mph19.5 kmh 29.99 in1015.6 mb 0.02 in0.5 mm 0.60 in15.2 mm 0.02 in0.5 mm
10:16 AM 40.1°F4.5°C 22.9°F-5.1°C 50% 10.7 mph E17.2 kmh E 10.7 mph17.2 kmh 29.98 in1015.2 mb 0.01 in0.3 mm 0.15 in3.8 mm 0.01 in0.3 mm
10:12 AM 43.2°F6.2°C 31.0°F-0.6°C 62% 5.6 mph N9.0 kmh N 6.0 mph9.7 kmh 30.20 in1022.7 mb 0.00 in0.0 mm 0.00 in0.0 mm 0.34 in8.6 mm
10:07 AM 43.5°F6.4°C 30.5°F-0.8°C 60% 5.4 mph N8.7 kmh N 5.4 mph8.7 kmh 30.20 in1022.7 mb 0.00 in0.0 mm 0.00 in0.0 mm 0.34 in8.6 mm
01:00 AM 40.1°F4.5°C 23.0°F-5.0°C 50% 9.7 mph NE15.6 kmh NE 15.2 mph24.5 kmh 29.98 in1015.2 mb 0.01 in0.3 mm 0.00 in0.0 mm 0.01 in0.3 mm
12:45 AM 40.1°F4.5°C 22.5°F-5.3°C 49% 9.5 mph N15.3 kmh N 14.5 mph23.3 kmh 29.98 in1015.2 mb 0.02 in0.5 mm 0.00 in0.0 mm 0.01 in0.3 mm
12:30 AM 39.9°F4.4°C 22.3°F-5.4°C 49% 8.9 mph NNE14.3 kmh NNE 13.6 mph21.9 kmh 29.97 in1014.9 mb 0.02 in0.5 mm 0.00 in0.0 mm 0.05 in1.3 mm
12:15 AM 39.7°F4.3°C 23.1°F-4.9°C 51% 7.1 mph N11.4 kmh N 12.1 mph19.5 kmh 29.96 in1014.6 mb 0.04 in1.0 mm 0.00 in0.0 mm 0.05 in1.3 mm
12:00 AM 39.2°F4.0°C 23.1°F-4.9°C 52% 7.6 mph N12.2 kmh N 11.4 mph18.3 kmh 29.96 in1014.6 mb 0.05 in1.3 mm 0.00 in0.0 mm 0.05 in1.3 mm